sensor_id;sensor_type;location;lat;lon;timestamp;P1;durP1;ratioP1;P2;durP2;ratioP2
8474;SDS011;4274;52.012;8.448;2023-05-07T00:01:36;70.60;;;19.93;;
8474;SDS011;4274;52.012;8.448;2023-05-07T00:04:01;68.80;;;19.57;;
8474;SDS011;4274;52.012;8.448;2023-05-07T00:06:28;75.97;;;19.70;;
8474;SDS011;4274;52.012;8.448;2023-05-07T00:08:54;65.83;;;19.47;;
8474;SDS011;4274;52.012;8.448;2023-05-07T00:11:20;66.73;;;19.20;;
8474;SDS011;4274;52.012;8.448;2023-05-07T00:13:47;64.90;;;18.90;;
8474;SDS011;4274;52.012;8.448;2023-05-07T00:16:13;75.23;;;20.33;;
8474;SDS011;4274;52.012;8.448;2023-05-07T00:18:38;67.77;;;19.47;;
8474;SDS011;4274;52.012;8.448;2023-05-07T00:21:04;65.93;;;19.27;;
8474;SDS011;4274;52.012;8.448;2023-05-07T00:23:30;68.00;;;20.00;;
8474;SDS011;4274;52.012;8.448;2023-05-07T00:25:55;68.47;;;20.53;;
8474;SDS011;4274;52.012;8.448;2023-05-07T00:28:21;63.57;;;18.23;;
8474;SDS011;4274;52.012;8.448;2023-05-07T00:30:47;64.43;;;18.87;;
8474;SDS011;4274;52.012;8.448;2023-05-07T00:33:12;74.60;;;21.00;;
8474;SDS011;4274;52.012;8.448;2023-05-07T00:35:38;71.40;;;19.83;;
8474;SDS011;4274;52.012;8.448;2023-05-07T00:38:03;66.73;;;19.03;;
8474;SDS011;4274;52.012;8.448;2023-05-07T00:40:29;65.10;;;18.67;;
8474;SDS011;4274;52.012;8.448;2023-05-07T00:42:54;72.37;;;20.03;;
8474;SDS011;4274;52.012;8.448;2023-05-07T00:45:22;68.37;;;20.37;;
8474;SDS011;4274;52.012;8.448;2023-05-07T00:47:51;69.40;;;20.43;;
8474;SDS011;4274;52.012;8.448;2023-05-07T00:50:19;74.57;;;20.27;;
8474;SDS011;4274;52.012;8.448;2023-05-07T00:52:45;70.57;;;19.27;;
8474;SDS011;4274;52.012;8.448;2023-05-07T00:55:10;66.70;;;19.43;;
8474;SDS011;4274;52.012;8.448;2023-05-07T00:57:38;68.33;;;19.10;;
8474;SDS011;4274;52.012;8.448;2023-05-07T01:00:06;66.40;;;19.40;;
8474;SDS011;4274;52.012;8.448;2023-05-07T01:02:33;71.00;;;20.97;;
8474;SDS011;4274;52.012;8.448;2023-05-07T01:05:00;67.03;;;19.13;;
8474;SDS011;4274;52.012;8.448;2023-05-07T01:07:26;67.50;;;20.27;;
8474;SDS011;4274;52.012;8.448;2023-05-07T01:09:52;66.57;;;18.43;;
8474;SDS011;4274;52.012;8.448;2023-05-07T01:12:19;66.00;;;18.63;;
8474;SDS011;4274;52.012;8.448;2023-05-07T01:14:45;67.00;;;18.50;;
8474;SDS011;4274;52.012;8.448;2023-05-07T01:17:10;70.27;;;20.30;;
8474;SDS011;4274;52.012;8.448;2023-05-07T01:19:36;66.17;;;17.93;;
8474;SDS011;4274;52.012;8.448;2023-05-07T01:22:09;81.53;;;21.37;;
8474;SDS011;4274;52.012;8.448;2023-05-07T01:24:36;72.97;;;20.10;;
8474;SDS011;4274;52.012;8.448;2023-05-07T01:27:03;67.80;;;19.53;;
8474;SDS011;4274;52.012;8.448;2023-05-07T01:29:28;66.93;;;19.20;;
8474;SDS011;4274;52.012;8.448;2023-05-07T01:31:56;69.60;;;20.90;;
8474;SDS011;4274;52.012;8.448;2023-05-07T01:34:23;69.23;;;20.13;;
8474;SDS011;4274;52.012;8.448;2023-05-07T01:36:52;68.47;;;19.83;;
8474;SDS011;4274;52.012;8.448;2023-05-07T01:39:18;75.93;;;20.00;;
8474;SDS011;4274;52.012;8.448;2023-05-07T01:41:44;72.20;;;20.87;;
8474;SDS011;4274;52.012;8.448;2023-05-07T01:44:10;75.70;;;20.77;;
8474;SDS011;4274;52.012;8.448;2023-05-07T01:46:38;72.50;;;21.90;;
8474;SDS011;4274;52.012;8.448;2023-05-07T01:49:03;72.23;;;20.60;;
8474;SDS011;4274;52.012;8.448;2023-05-07T01:51:29;70.70;;;21.27;;
8474;SDS011;4274;52.012;8.448;2023-05-07T01:53:56;69.30;;;20.47;;
8474;SDS011;4274;52.012;8.448;2023-05-07T01:56:23;71.10;;;21.77;;
8474;SDS011;4274;52.012;8.448;2023-05-07T01:58:50;68.50;;;21.23;;
8474;SDS011;4274;52.012;8.448;2023-05-07T02:01:16;73.50;;;20.67;;
8474;SDS011;4274;52.012;8.448;2023-05-07T02:03:42;73.43;;;22.67;;
8474;SDS011;4274;52.012;8.448;2023-05-07T02:06:07;71.30;;;22.00;;
8474;SDS011;4274;52.012;8.448;2023-05-07T02:08:33;70.20;;;21.13;;
8474;SDS011;4274;52.012;8.448;2023-05-07T02:10:58;74.50;;;22.77;;
8474;SDS011;4274;52.012;8.448;2023-05-07T02:13:25;73.53;;;21.63;;
8474;SDS011;4274;52.012;8.448;2023-05-07T02:15:52;71.50;;;21.47;;
8474;SDS011;4274;52.012;8.448;2023-05-07T02:18:18;70.10;;;21.83;;
8474;SDS011;4274;52.012;8.448;2023-05-07T02:20:44;72.57;;;21.93;;
8474;SDS011;4274;52.012;8.448;2023-05-07T02:23:09;74.57;;;21.30;;
8474;SDS011;4274;52.012;8.448;2023-05-07T02:25:35;70.70;;;21.03;;
8474;SDS011;4274;52.012;8.448;2023-05-07T02:28:00;74.37;;;22.10;;
8474;SDS011;4274;52.012;8.448;2023-05-07T02:30:26;70.23;;;20.53;;
8474;SDS011;4274;52.012;8.448;2023-05-07T02:32:51;75.83;;;22.50;;
8474;SDS011;4274;52.012;8.448;2023-05-07T02:35:17;71.50;;;21.63;;
8474;SDS011;4274;52.012;8.448;2023-05-07T02:37:43;71.23;;;21.00;;
8474;SDS011;4274;52.012;8.448;2023-05-07T02:40:08;67.87;;;20.40;;
8474;SDS011;4274;52.012;8.448;2023-05-07T02:42:34;71.07;;;22.77;;
8474;SDS011;4274;52.012;8.448;2023-05-07T02:45:00;70.07;;;22.27;;
8474;SDS011;4274;52.012;8.448;2023-05-07T02:47:26;74.57;;;23.07;;
8474;SDS011;4274;52.012;8.448;2023-05-07T02:49:55;71.80;;;22.07;;
8474;SDS011;4274;52.012;8.448;2023-05-07T02:52:21;73.23;;;21.30;;
8474;SDS011;4274;52.012;8.448;2023-05-07T02:54:46;70.67;;;23.10;;
8474;SDS011;4274;52.012;8.448;2023-05-07T02:57:12;71.40;;;23.00;;
8474;SDS011;4274;52.012;8.448;2023-05-07T02:59:37;76.13;;;23.07;;
8474;SDS011;4274;52.012;8.448;2023-05-07T03:02:03;77.20;;;22.70;;
8474;SDS011;4274;52.012;8.448;2023-05-07T03:04:29;70.40;;;22.17;;
8474;SDS011;4274;52.012;8.448;2023-05-07T03:06:54;71.67;;;21.60;;
8474;SDS011;4274;52.012;8.448;2023-05-07T03:09:20;74.40;;;23.40;;
8474;SDS011;4274;52.012;8.448;2023-05-07T03:11:45;72.90;;;21.60;;
8474;SDS011;4274;52.012;8.448;2023-05-07T03:14:11;74.90;;;22.60;;
8474;SDS011;4274;52.012;8.448;2023-05-07T03:16:37;71.87;;;21.33;;
8474;SDS011;4274;52.012;8.448;2023-05-07T03:19:03;72.67;;;22.53;;
8474;SDS011;4274;52.012;8.448;2023-05-07T03:21:28;73.50;;;21.03;;
8474;SDS011;4274;52.012;8.448;2023-05-07T03:23:55;69.13;;;20.87;;
8474;SDS011;4274;52.012;8.448;2023-05-07T03:26:21;72.70;;;21.73;;
8474;SDS011;4274;52.012;8.448;2023-05-07T03:28:46;75.87;;;22.53;;
8474;SDS011;4274;52.012;8.448;2023-05-07T03:31:12;72.03;;;22.70;;
8474;SDS011;4274;52.012;8.448;2023-05-07T03:33:42;71.53;;;20.40;;
8474;SDS011;4274;52.012;8.448;2023-05-07T03:36:18;71.67;;;23.10;;
8474;SDS011;4274;52.012;8.448;2023-05-07T03:38:43;74.30;;;21.87;;
8474;SDS011;4274;52.012;8.448;2023-05-07T03:41:09;77.40;;;22.67;;
8474;SDS011;4274;52.012;8.448;2023-05-07T03:43:35;74.23;;;22.40;;
8474;SDS011;4274;52.012;8.448;2023-05-07T03:46:00;70.33;;;21.93;;
8474;SDS011;4274;52.012;8.448;2023-05-07T03:48:26;77.13;;;24.13;;
8474;SDS011;4274;52.012;8.448;2023-05-07T03:50:51;74.63;;;22.97;;
8474;SDS011;4274;52.012;8.448;2023-05-07T03:53:17;73.77;;;22.13;;
8474;SDS011;4274;52.012;8.448;2023-05-07T03:55:42;74.80;;;22.63;;
8474;SDS011;4274;52.012;8.448;2023-05-07T03:58:08;76.73;;;21.83;;
8474;SDS011;4274;52.012;8.448;2023-05-07T04:00:34;76.13;;;23.80;;
8474;SDS011;4274;52.012;8.448;2023-05-07T04:03:03;74.03;;;21.43;;
8474;SDS011;4274;52.012;8.448;2023-05-07T04:05:29;69.43;;;21.13;;
8474;SDS011;4274;52.012;8.448;2023-05-07T04:07:55;75.07;;;22.10;;
8474;SDS011;4274;52.012;8.448;2023-05-07T04:10:22;69.80;;;21.80;;
8474;SDS011;4274;52.012;8.448;2023-05-07T04:12:48;71.77;;;22.50;;
8474;SDS011;4274;52.012;8.448;2023-05-07T04:15:13;74.20;;;21.30;;
8474;SDS011;4274;52.012;8.448;2023-05-07T04:17:39;68.40;;;20.57;;
8474;SDS011;4274;52.012;8.448;2023-05-07T04:20:06;72.73;;;22.00;;
8474;SDS011;4274;52.012;8.448;2023-05-07T04:22:35;69.47;;;20.77;;
8474;SDS011;4274;52.012;8.448;2023-05-07T04:25:01;67.13;;;20.13;;
8474;SDS011;4274;52.012;8.448;2023-05-07T04:27:27;74.83;;;22.27;;
8474;SDS011;4274;52.012;8.448;2023-05-07T04:29:53;80.83;;;22.80;;
8474;SDS011;4274;52.012;8.448;2023-05-07T04:32:21;69.90;;;21.10;;
8474;SDS011;4274;52.012;8.448;2023-05-07T04:34:47;69.23;;;21.53;;
8474;SDS011;4274;52.012;8.448;2023-05-07T04:37:12;72.50;;;22.17;;
8474;SDS011;4274;52.012;8.448;2023-05-07T04:39:38;80.90;;;21.23;;
8474;SDS011;4274;52.012;8.448;2023-05-07T04:42:03;73.07;;;22.83;;
8474;SDS011;4274;52.012;8.448;2023-05-07T04:44:29;68.27;;;21.33;;
8474;SDS011;4274;52.012;8.448;2023-05-07T04:46:56;71.43;;;22.00;;
8474;SDS011;4274;52.012;8.448;2023-05-07T04:49:22;72.73;;;21.93;;
8474;SDS011;4274;52.012;8.448;2023-05-07T04:51:47;75.40;;;22.60;;
8474;SDS011;4274;52.012;8.448;2023-05-07T04:54:13;72.80;;;22.40;;
8474;SDS011;4274;52.012;8.448;2023-05-07T04:56:38;73.27;;;21.03;;
8474;SDS011;4274;52.012;8.448;2023-05-07T04:59:04;71.20;;;22.10;;
8474;SDS011;4274;52.012;8.448;2023-05-07T05:01:30;73.47;;;23.00;;
8474;SDS011;4274;52.012;8.448;2023-05-07T05:03:56;70.77;;;21.37;;
8474;SDS011;4274;52.012;8.448;2023-05-07T05:06:21;75.90;;;22.90;;
8474;SDS011;4274;52.012;8.448;2023-05-07T05:08:47;69.27;;;21.27;;
8474;SDS011;4274;52.012;8.448;2023-05-07T05:11:13;74.23;;;22.37;;
8474;SDS011;4274;52.012;8.448;2023-05-07T05:13:38;73.27;;;21.97;;
8474;SDS011;4274;52.012;8.448;2023-05-07T05:16:04;71.77;;;21.50;;
8474;SDS011;4274;52.012;8.448;2023-05-07T05:18:30;72.97;;;21.93;;
8474;SDS011;4274;52.012;8.448;2023-05-07T05:20:56;68.13;;;21.50;;
8474;SDS011;4274;52.012;8.448;2023-05-07T05:23:21;68.80;;;21.37;;
8474;SDS011;4274;52.012;8.448;2023-05-07T05:25:47;71.90;;;21.17;;
8474;SDS011;4274;52.012;8.448;2023-05-07T05:28:13;74.20;;;23.63;;
8474;SDS011;4274;52.012;8.448;2023-05-07T05:30:38;72.10;;;22.27;;
8474;SDS011;4274;52.012;8.448;2023-05-07T05:33:04;71.60;;;22.20;;
8474;SDS011;4274;52.012;8.448;2023-05-07T05:35:29;72.80;;;20.47;;
8474;SDS011;4274;52.012;8.448;2023-05-07T05:37:55;73.10;;;21.53;;
8474;SDS011;4274;52.012;8.448;2023-05-07T05:40:21;72.93;;;21.00;;
8474;SDS011;4274;52.012;8.448;2023-05-07T05:42:46;73.53;;;20.87;;
8474;SDS011;4274;52.012;8.448;2023-05-07T05:45:12;76.83;;;21.10;;
8474;SDS011;4274;52.012;8.448;2023-05-07T05:47:38;70.80;;;22.37;;
8474;SDS011;4274;52.012;8.448;2023-05-07T05:50:04;75.13;;;21.67;;
8474;SDS011;4274;52.012;8.448;2023-05-07T05:52:31;73.07;;;21.03;;
8474;SDS011;4274;52.012;8.448;2023-05-07T05:54:56;71.50;;;19.90;;
8474;SDS011;4274;52.012;8.448;2023-05-07T05:57:22;71.93;;;19.93;;
8474;SDS011;4274;52.012;8.448;2023-05-07T05:59:48;71.83;;;20.47;;
8474;SDS011;4274;52.012;8.448;2023-05-07T06:02:13;73.67;;;21.90;;
8474;SDS011;4274;52.012;8.448;2023-05-07T06:04:39;68.80;;;19.23;;
8474;SDS011;4274;52.012;8.448;2023-05-07T06:07:04;69.07;;;20.53;;
8474;SDS011;4274;52.012;8.448;2023-05-07T06:09:30;72.27;;;21.43;;
8474;SDS011;4274;52.012;8.448;2023-05-07T06:11:56;69.53;;;19.93;;
8474;SDS011;4274;52.012;8.448;2023-05-07T06:14:21;69.90;;;21.10;;
8474;SDS011;4274;52.012;8.448;2023-05-07T06:16:47;71.63;;;20.50;;
8474;SDS011;4274;52.012;8.448;2023-05-07T06:19:12;72.00;;;20.30;;
8474;SDS011;4274;52.012;8.448;2023-05-07T06:21:38;69.73;;;19.43;;
8474;SDS011;4274;52.012;8.448;2023-05-07T06:24:05;68.87;;;17.87;;
8474;SDS011;4274;52.012;8.448;2023-05-07T06:26:30;68.90;;;18.83;;
8474;SDS011;4274;52.012;8.448;2023-05-07T06:28:56;68.33;;;18.67;;
8474;SDS011;4274;52.012;8.448;2023-05-07T06:31:22;75.57;;;20.00;;
8474;SDS011;4274;52.012;8.448;2023-05-07T06:33:48;67.10;;;19.17;;
8474;SDS011;4274;52.012;8.448;2023-05-07T06:36:14;69.43;;;19.30;;
8474;SDS011;4274;52.012;8.448;2023-05-07T06:38:40;68.77;;;18.67;;
8474;SDS011;4274;52.012;8.448;2023-05-07T06:41:06;65.73;;;17.70;;
8474;SDS011;4274;52.012;8.448;2023-05-07T06:43:32;69.20;;;17.80;;
8474;SDS011;4274;52.012;8.448;2023-05-07T06:45:58;65.37;;;17.63;;
8474;SDS011;4274;52.012;8.448;2023-05-07T06:48:23;64.80;;;17.27;;
8474;SDS011;4274;52.012;8.448;2023-05-07T06:50:49;66.07;;;17.70;;
8474;SDS011;4274;52.012;8.448;2023-05-07T06:53:15;63.83;;;16.87;;
8474;SDS011;4274;52.012;8.448;2023-05-07T06:55:41;71.60;;;17.30;;
8474;SDS011;4274;52.012;8.448;2023-05-07T06:58:06;60.77;;;15.67;;
8474;SDS011;4274;52.012;8.448;2023-05-07T07:00:32;67.53;;;17.27;;
8474;SDS011;4274;52.012;8.448;2023-05-07T07:02:57;70.70;;;16.60;;
8474;SDS011;4274;52.012;8.448;2023-05-07T07:05:24;64.60;;;16.10;;
8474;SDS011;4274;52.012;8.448;2023-05-07T07:07:50;65.27;;;17.03;;
8474;SDS011;4274;52.012;8.448;2023-05-07T07:10:18;64.80;;;16.23;;
8474;SDS011;4274;52.012;8.448;2023-05-07T07:12:44;67.03;;;16.70;;
8474;SDS011;4274;52.012;8.448;2023-05-07T07:15:10;63.37;;;16.07;;
8474;SDS011;4274;52.012;8.448;2023-05-07T07:17:36;63.47;;;15.57;;
8474;SDS011;4274;52.012;8.448;2023-05-07T07:20:01;63.53;;;16.50;;
8474;SDS011;4274;52.012;8.448;2023-05-07T07:22:27;61.37;;;14.37;;
8474;SDS011;4274;52.012;8.448;2023-05-07T07:24:53;63.20;;;16.57;;
8474;SDS011;4274;52.012;8.448;2023-05-07T07:27:19;62.80;;;16.23;;
8474;SDS011;4274;52.012;8.448;2023-05-07T07:29:44;74.60;;;16.83;;
8474;SDS011;4274;52.012;8.448;2023-05-07T07:32:10;61.47;;;14.83;;
8474;SDS011;4274;52.012;8.448;2023-05-07T07:34:36;60.20;;;15.00;;
8474;SDS011;4274;52.012;8.448;2023-05-07T07:37:01;59.37;;;13.67;;
8474;SDS011;4274;52.012;8.448;2023-05-07T07:39:30;60.83;;;13.23;;
8474;SDS011;4274;52.012;8.448;2023-05-07T07:41:56;62.20;;;15.50;;
8474;SDS011;4274;52.012;8.448;2023-05-07T07:44:21;59.50;;;13.93;;
8474;SDS011;4274;52.012;8.448;2023-05-07T07:46:47;62.30;;;14.77;;
8474;SDS011;4274;52.012;8.448;2023-05-07T07:49:13;61.83;;;15.07;;
8474;SDS011;4274;52.012;8.448;2023-05-07T07:51:39;62.43;;;14.30;;
8474;SDS011;4274;52.012;8.448;2023-05-07T07:54:04;61.47;;;15.00;;
8474;SDS011;4274;52.012;8.448;2023-05-07T07:56:30;66.20;;;14.70;;
8474;SDS011;4274;52.012;8.448;2023-05-07T07:58:56;62.40;;;13.97;;
8474;SDS011;4274;52.012;8.448;2023-05-07T08:01:22;57.90;;;13.47;;
8474;SDS011;4274;52.012;8.448;2023-05-07T08:03:48;60.53;;;13.97;;
8474;SDS011;4274;52.012;8.448;2023-05-07T08:06:13;57.57;;;12.40;;
8474;SDS011;4274;52.012;8.448;2023-05-07T08:08:39;58.43;;;13.93;;
8474;SDS011;4274;52.012;8.448;2023-05-07T08:11:05;57.43;;;12.57;;
8474;SDS011;4274;52.012;8.448;2023-05-07T08:13:30;59.40;;;12.93;;
8474;SDS011;4274;52.012;8.448;2023-05-07T08:15:56;57.47;;;12.57;;
8474;SDS011;4274;52.012;8.448;2023-05-07T08:18:21;55.43;;;12.20;;
8474;SDS011;4274;52.012;8.448;2023-05-07T08:20:49;58.70;;;12.90;;
8474;SDS011;4274;52.012;8.448;2023-05-07T08:23:15;57.00;;;11.77;;
8474;SDS011;4274;52.012;8.448;2023-05-07T08:25:40;55.30;;;10.80;;
8474;SDS011;4274;52.012;8.448;2023-05-07T08:28:07;59.10;;;11.10;;
8474;SDS011;4274;52.012;8.448;2023-05-07T08:30:33;57.27;;;12.13;;
8474;SDS011;4274;52.012;8.448;2023-05-07T08:32:59;54.70;;;10.83;;
8474;SDS011;4274;52.012;8.448;2023-05-07T08:35:25;57.53;;;12.07;;
8474;SDS011;4274;52.012;8.448;2023-05-07T08:37:51;57.50;;;11.63;;
8474;SDS011;4274;52.012;8.448;2023-05-07T08:40:17;56.20;;;11.40;;
8474;SDS011;4274;52.012;8.448;2023-05-07T08:42:43;53.93;;;10.50;;
8474;SDS011;4274;52.012;8.448;2023-05-07T08:45:10;54.63;;;10.60;;
8474;SDS011;4274;52.012;8.448;2023-05-07T08:47:40;57.13;;;11.40;;
8474;SDS011;4274;52.012;8.448;2023-05-07T08:50:11;53.70;;;9.93;;
8474;SDS011;4274;52.012;8.448;2023-05-07T08:52:38;55.67;;;10.50;;
8474;SDS011;4274;52.012;8.448;2023-05-07T08:55:05;55.23;;;10.27;;
8474;SDS011;4274;52.012;8.448;2023-05-07T08:57:32;54.27;;;9.77;;
8474;SDS011;4274;52.012;8.448;2023-05-07T08:59:58;55.83;;;10.83;;
8474;SDS011;4274;52.012;8.448;2023-05-07T09:02:23;54.57;;;10.63;;
8474;SDS011;4274;52.012;8.448;2023-05-07T09:04:49;55.00;;;11.07;;
8474;SDS011;4274;52.012;8.448;2023-05-07T09:07:15;53.90;;;9.63;;
8474;SDS011;4274;52.012;8.448;2023-05-07T09:09:41;56.03;;;10.17;;
8474;SDS011;4274;52.012;8.448;2023-05-07T09:12:09;55.60;;;10.73;;
8474;SDS011;4274;52.012;8.448;2023-05-07T09:14:34;52.57;;;9.10;;
8474;SDS011;4274;52.012;8.448;2023-05-07T09:17:00;52.97;;;9.33;;
8474;SDS011;4274;52.012;8.448;2023-05-07T09:19:26;54.13;;;9.57;;
8474;SDS011;4274;52.012;8.448;2023-05-07T09:22:01;53.17;;;10.00;;
8474;SDS011;4274;52.012;8.448;2023-05-07T09:24:28;53.80;;;10.80;;
8474;SDS011;4274;52.012;8.448;2023-05-07T09:26:58;53.80;;;9.90;;
8474;SDS011;4274;52.012;8.448;2023-05-07T09:29:25;54.30;;;10.77;;
8474;SDS011;4274;52.012;8.448;2023-05-07T09:31:50;60.10;;;9.67;;
8474;SDS011;4274;52.012;8.448;2023-05-07T09:34:16;53.97;;;9.10;;
8474;SDS011;4274;52.012;8.448;2023-05-07T09:36:41;51.30;;;9.27;;
8474;SDS011;4274;52.012;8.448;2023-05-07T09:39:07;53.10;;;9.10;;
8474;SDS011;4274;52.012;8.448;2023-05-07T09:41:33;53.17;;;9.20;;
8474;SDS011;4274;52.012;8.448;2023-05-07T09:44:09;53.53;;;9.30;;
8474;SDS011;4274;52.012;8.448;2023-05-07T09:46:34;51.90;;;8.40;;
8474;SDS011;4274;52.012;8.448;2023-05-07T09:49:03;53.40;;;9.70;;
8474;SDS011;4274;52.012;8.448;2023-05-07T09:51:57;52.07;;;8.37;;
8474;SDS011;4274;52.012;8.448;2023-05-07T09:54:25;56.10;;;8.40;;
8474;SDS011;4274;52.012;8.448;2023-05-07T09:56:53;52.70;;;8.90;;
8474;SDS011;4274;52.012;8.448;2023-05-07T09:59:20;53.97;;;9.03;;
8474;SDS011;4274;52.012;8.448;2023-05-07T10:01:47;52.97;;;8.77;;
8474;SDS011;4274;52.012;8.448;2023-05-07T10:04:13;52.50;;;8.77;;
8474;SDS011;4274;52.012;8.448;2023-05-07T10:06:40;52.60;;;8.10;;
8474;SDS011;4274;52.012;8.448;2023-05-07T10:09:06;52.30;;;8.80;;
8474;SDS011;4274;52.012;8.448;2023-05-07T10:11:35;51.63;;;7.97;;
8474;SDS011;4274;52.012;8.448;2023-05-07T10:14:02;52.60;;;8.33;;
8474;SDS011;4274;52.012;8.448;2023-05-07T10:16:34;54.20;;;8.90;;
8474;SDS011;4274;52.012;8.448;2023-05-07T10:19:04;52.90;;;8.47;;
8474;SDS011;4274;52.012;8.448;2023-05-07T10:21:32;52.60;;;7.53;;
8474;SDS011;4274;52.012;8.448;2023-05-07T10:24:04;54.53;;;8.87;;
8474;SDS011;4274;52.012;8.448;2023-05-07T10:26:40;54.80;;;7.67;;
8474;SDS011;4274;52.012;8.448;2023-05-07T10:29:18;52.60;;;8.30;;
8474;SDS011;4274;52.012;8.448;2023-05-07T10:34:53;54.30;;;8.47;;
8474;SDS011;4274;52.012;8.448;2023-05-07T10:37:20;54.33;;;9.30;;
8474;SDS011;4274;52.012;8.448;2023-05-07T10:39:47;53.00;;;8.53;;
8474;SDS011;4274;52.012;8.448;2023-05-07T10:42:13;52.50;;;7.07;;
8474;SDS011;4274;52.012;8.448;2023-05-07T10:44:39;54.57;;;8.17;;
8474;SDS011;4274;52.012;8.448;2023-05-07T10:47:12;52.77;;;8.50;;
8474;SDS011;4274;52.012;8.448;2023-05-07T10:52:17;52.47;;;7.37;;
8474;SDS011;4274;52.012;8.448;2023-05-07T10:54:44;52.83;;;8.00;;
8474;SDS011;4274;52.012;8.448;2023-05-07T10:59:57;51.70;;;8.10;;
8474;SDS011;4274;52.012;8.448;2023-05-07T11:02:23;54.20;;;8.53;;
8474;SDS011;4274;52.012;8.448;2023-05-07T11:05:24;54.47;;;8.00;;
8474;SDS011;4274;52.012;8.448;2023-05-07T11:07:56;57.67;;;7.10;;
8474;SDS011;4274;52.012;8.448;2023-05-07T11:18:52;51.20;;;7.10;;
8474;SDS011;4274;52.012;8.448;2023-05-07T11:23:57;53.27;;;7.17;;
8474;SDS011;4274;52.012;8.448;2023-05-07T11:26:23;53.07;;;7.10;;
8474;SDS011;4274;52.012;8.448;2023-05-07T11:28:50;50.17;;;7.00;;
8474;SDS011;4274;52.012;8.448;2023-05-07T11:31:20;50.80;;;7.37;;
8474;SDS011;4274;52.012;8.448;2023-05-07T11:33:48;50.30;;;6.60;;
8474;SDS011;4274;52.012;8.448;2023-05-07T11:36:14;52.73;;;6.80;;
8474;SDS011;4274;52.012;8.448;2023-05-07T11:38:40;49.00;;;5.83;;
8474;SDS011;4274;52.012;8.448;2023-05-07T11:41:06;52.47;;;7.30;;
8474;SDS011;4274;52.012;8.448;2023-05-07T11:43:32;50.93;;;7.20;;
8474;SDS011;4274;52.012;8.448;2023-05-07T11:46:07;50.80;;;6.97;;
8474;SDS011;4274;52.012;8.448;2023-05-07T11:48:35;50.00;;;6.00;;
8474;SDS011;4274;52.012;8.448;2023-05-07T11:51:02;50.00;;;6.63;;
8474;SDS011;4274;52.012;8.448;2023-05-07T11:53:35;50.53;;;7.03;;
8474;SDS011;4274;52.012;8.448;2023-05-07T11:56:06;50.20;;;6.40;;
8474;SDS011;4274;52.012;8.448;2023-05-07T11:58:36;51.47;;;7.07;;
8474;SDS011;4274;52.012;8.448;2023-05-07T12:01:02;54.10;;;6.20;;
8474;SDS011;4274;52.012;8.448;2023-05-07T12:03:28;48.30;;;5.53;;
8474;SDS011;4274;52.012;8.448;2023-05-07T12:05:53;49.50;;;6.47;;
8474;SDS011;4274;52.012;8.448;2023-05-07T12:08:20;50.80;;;5.90;;
8474;SDS011;4274;52.012;8.448;2023-05-07T12:10:47;48.43;;;5.47;;
8474;SDS011;4274;52.012;8.448;2023-05-07T12:13:16;49.83;;;5.60;;
8474;SDS011;4274;52.012;8.448;2023-05-07T12:15:43;48.90;;;4.97;;
8474;SDS011;4274;52.012;8.448;2023-05-07T12:18:09;49.70;;;6.33;;
8474;SDS011;4274;52.012;8.448;2023-05-07T12:20:36;49.70;;;6.20;;
8474;SDS011;4274;52.012;8.448;2023-05-07T12:23:02;50.50;;;5.67;;
8474;SDS011;4274;52.012;8.448;2023-05-07T12:25:31;49.87;;;5.83;;
8474;SDS011;4274;52.012;8.448;2023-05-07T12:28:04;48.00;;;5.00;;
8474;SDS011;4274;52.012;8.448;2023-05-07T12:30:36;49.40;;;5.20;;
8474;SDS011;4274;52.012;8.448;2023-05-07T12:33:03;48.57;;;5.67;;
8474;SDS011;4274;52.012;8.448;2023-05-07T12:35:32;47.77;;;4.83;;
8474;SDS011;4274;52.012;8.448;2023-05-07T12:38:04;51.47;;;5.60;;
8474;SDS011;4274;52.012;8.448;2023-05-07T12:40:46;48.80;;;5.90;;
8474;SDS011;4274;52.012;8.448;2023-05-07T12:45:50;51.30;;;6.83;;
8474;SDS011;4274;52.012;8.448;2023-05-07T12:48:18;53.10;;;5.27;;
8474;SDS011;4274;52.012;8.448;2023-05-07T12:50:44;48.10;;;5.23;;
8474;SDS011;4274;52.012;8.448;2023-05-07T12:53:11;48.07;;;5.13;;
8474;SDS011;4274;52.012;8.448;2023-05-07T12:55:56;47.83;;;4.87;;
8474;SDS011;4274;52.012;8.448;2023-05-07T12:58:30;48.97;;;5.53;;
8474;SDS011;4274;52.012;8.448;2023-05-07T13:00:58;48.37;;;5.43;;
8474;SDS011;4274;52.012;8.448;2023-05-07T13:03:26;51.50;;;5.70;;
8474;SDS011;4274;52.012;8.448;2023-05-07T13:05:59;50.00;;;6.20;;
8474;SDS011;4274;52.012;8.448;2023-05-07T13:08:42;50.97;;;5.30;;
8474;SDS011;4274;52.012;8.448;2023-05-07T13:11:08;49.80;;;5.23;;
8474;SDS011;4274;52.012;8.448;2023-05-07T13:13:35;49.87;;;5.60;;
8474;SDS011;4274;52.012;8.448;2023-05-07T13:16:04;53.50;;;6.57;;
8474;SDS011;4274;52.012;8.448;2023-05-07T13:18:31;51.10;;;6.10;;
8474;SDS011;4274;52.012;8.448;2023-05-07T13:20:57;50.67;;;5.30;;
8474;SDS011;4274;52.012;8.448;2023-05-07T13:23:23;55.50;;;6.17;;
8474;SDS011;4274;52.012;8.448;2023-05-07T13:25:49;49.50;;;5.83;;
8474;SDS011;4274;52.012;8.448;2023-05-07T13:28:15;49.20;;;6.00;;
8474;SDS011;4274;52.012;8.448;2023-05-07T13:30:41;50.53;;;5.70;;
8474;SDS011;4274;52.012;8.448;2023-05-07T13:33:07;48.27;;;5.80;;
8474;SDS011;4274;52.012;8.448;2023-05-07T13:35:33;50.43;;;6.00;;
8474;SDS011;4274;52.012;8.448;2023-05-07T13:37:59;48.20;;;5.07;;
8474;SDS011;4274;52.012;8.448;2023-05-07T13:40:25;48.53;;;5.20;;
8474;SDS011;4274;52.012;8.448;2023-05-07T13:42:50;47.80;;;5.60;;
8474;SDS011;4274;52.012;8.448;2023-05-07T13:45:17;49.13;;;5.40;;
8474;SDS011;4274;52.012;8.448;2023-05-07T13:47:43;49.30;;;6.00;;
8474;SDS011;4274;52.012;8.448;2023-05-07T13:50:10;49.40;;;5.83;;
8474;SDS011;4274;52.012;8.448;2023-05-07T13:52:36;50.60;;;6.67;;
8474;SDS011;4274;52.012;8.448;2023-05-07T13:55:02;49.00;;;5.83;;
8474;SDS011;4274;52.012;8.448;2023-05-07T13:57:28;50.50;;;6.57;;
8474;SDS011;4274;52.012;8.448;2023-05-07T13:59:54;48.90;;;5.67;;
8474;SDS011;4274;52.012;8.448;2023-05-07T14:02:20;51.87;;;5.77;;
8474;SDS011;4274;52.012;8.448;2023-05-07T14:04:46;49.40;;;6.20;;
8474;SDS011;4274;52.012;8.448;2023-05-07T14:07:11;54.20;;;6.43;;
8474;SDS011;4274;52.012;8.448;2023-05-07T14:09:37;48.93;;;5.70;;
8474;SDS011;4274;52.012;8.448;2023-05-07T14:12:02;48.40;;;5.70;;
8474;SDS011;4274;52.012;8.448;2023-05-07T14:14:28;50.77;;;7.00;;
8474;SDS011;4274;52.012;8.448;2023-05-07T14:16:54;51.03;;;6.90;;
8474;SDS011;4274;52.012;8.448;2023-05-07T14:19:20;49.93;;;6.77;;
8474;SDS011;4274;52.012;8.448;2023-05-07T14:21:47;50.40;;;6.07;;
8474;SDS011;4274;52.012;8.448;2023-05-07T14:24:13;49.90;;;6.13;;
8474;SDS011;4274;52.012;8.448;2023-05-07T14:26:39;48.97;;;6.27;;
8474;SDS011;4274;52.012;8.448;2023-05-07T14:29:04;52.93;;;6.93;;
8474;SDS011;4274;52.012;8.448;2023-05-07T14:31:30;51.23;;;6.20;;
8474;SDS011;4274;52.012;8.448;2023-05-07T14:33:55;51.73;;;6.80;;
8474;SDS011;4274;52.012;8.448;2023-05-07T14:36:23;50.47;;;7.20;;
8474;SDS011;4274;52.012;8.448;2023-05-07T14:38:51;50.50;;;6.17;;
8474;SDS011;4274;52.012;8.448;2023-05-07T14:41:18;50.60;;;6.97;;
8474;SDS011;4274;52.012;8.448;2023-05-07T14:43:43;51.70;;;7.80;;
8474;SDS011;4274;52.012;8.448;2023-05-07T14:46:14;51.23;;;8.00;;
8474;SDS011;4274;52.012;8.448;2023-05-07T14:48:41;50.30;;;6.83;;
8474;SDS011;4274;52.012;8.448;2023-05-07T14:51:08;51.37;;;7.47;;
8474;SDS011;4274;52.012;8.448;2023-05-07T14:53:33;51.80;;;8.10;;
8474;SDS011;4274;52.012;8.448;2023-05-07T14:55:59;53.53;;;7.80;;
8474;SDS011;4274;52.012;8.448;2023-05-07T14:58:25;54.97;;;8.23;;
8474;SDS011;4274;52.012;8.448;2023-05-07T15:00:50;52.50;;;8.17;;
8474;SDS011;4274;52.012;8.448;2023-05-07T15:03:16;52.70;;;8.07;;
8474;SDS011;4274;52.012;8.448;2023-05-07T15:05:42;51.63;;;8.00;;
8474;SDS011;4274;52.012;8.448;2023-05-07T15:08:07;52.33;;;8.27;;
8474;SDS011;4274;52.012;8.448;2023-05-07T15:10:36;61.90;;;7.70;;
8474;SDS011;4274;52.012;8.448;2023-05-07T15:13:06;53.30;;;8.20;;